地図

経路データ

SID SEASON NUMBER BASIN SUBBASIN NAME ISO_TIME NATURE LAT LON WMO_WIND WMO_PRES WMO_AGENCY TRACK_TYPE DIST2LAND LANDFALL IFLAG USA_AGENCY USA_ATCF_ID USA_LAT USA_LON USA_RECORD USA_STATUS USA_WIND USA_PRES USA_SSHS USA_R34_NE USA_R34_SE USA_R34_SW USA_R34_NW USA_R50_NE USA_R50_SE USA_R50_SW USA_R50_NW USA_R64_NE USA_R64_SE USA_R64_SW USA_R64_NW USA_POCI USA_ROCI USA_RMW USA_EYE TOKYO_LAT TOKYO_LON TOKYO_GRADE TOKYO_WIND TOKYO_PRES TOKYO_R50_DIR TOKYO_R50_LONG TOKYO_R50_SHORT TOKYO_R30_DIR TOKYO_R30_LONG TOKYO_R30_SHORT TOKYO_LAND CMA_LAT CMA_LON CMA_CAT CMA_WIND CMA_PRES HKO_LAT HKO_LON HKO_CAT HKO_WIND HKO_PRES NEWDELHI_LAT NEWDELHI_LON NEWDELHI_GRADE NEWDELHI_WIND NEWDELHI_PRES NEWDELHI_CI NEWDELHI_DP NEWDELHI_POCI REUNION_LAT REUNION_LON REUNION_TYPE REUNION_WIND REUNION_PRES REUNION_TNUM REUNION_CI REUNION_RMW REUNION_R34_NE REUNION_R34_SE REUNION_R34_SW REUNION_R34_NW REUNION_R50_NE REUNION_R50_SE REUNION_R50_SW REUNION_R50_NW REUNION_R64_NE REUNION_R64_SE REUNION_R64_SW REUNION_R64_NW BOM_LAT BOM_LON BOM_TYPE BOM_WIND BOM_PRES BOM_TNUM BOM_CI BOM_RMW BOM_R34_NE BOM_R34_SE BOM_R34_SW BOM_R34_NW BOM_R50_NE BOM_R50_SE BOM_R50_SW BOM_R50_NW BOM_R64_NE BOM_R64_SE BOM_R64_SW BOM_R64_NW BOM_ROCI BOM_POCI BOM_EYE BOM_POS_METHOD BOM_PRES_METHOD NADI_LAT NADI_LON NADI_CAT NADI_WIND NADI_PRES WELLINGTON_LAT WELLINGTON_LON WELLINGTON_WIND WELLINGTON_PRES DS824_LAT DS824_LON DS824_STAGE DS824_WIND DS824_PRES TD9636_LAT TD9636_LON TD9636_STAGE TD9636_WIND TD9636_PRES TD9635_LAT TD9635_LON TD9635_WIND TD9635_PRES TD9635_ROCI NEUMANN_LAT NEUMANN_LON NEUMANN_CLASS NEUMANN_WIND NEUMANN_PRES MLC_LAT MLC_LON MLC_CLASS MLC_WIND MLC_PRES USA_GUST BOM_GUST BOM_GUST_PER REUNION_GUST REUNION_GUST_PER USA_SEAHGT USA_SEARAD_NE USA_SEARAD_SE USA_SEARAD_SW USA_SEARAD_NW STORM_SPEED STORM_DIR
1932297N15132 1932 68 WP MM NOT_NAMED 1932-10-23 10:00:00 NR 15.1000 131.600 main 735 715 __________O___ -1 15.1000 131.600 7 7 280
1932297N15132 1932 68 WP MM NOT_NAMED 1932-10-23 12:00:00 NR 15.1367 131.377 main 715 682 __________P___ -1 15.1367 131.377 7 7 281
1932297N15132 1932 68 WP MM NOT_NAMED 1932-10-23 15:00:00 NR 15.2091 131.014 main 682 651 __________P___ -1 15.2091 131.014 7 8 284
1932297N15132 1932 68 WP MM NOT_NAMED 1932-10-23 18:00:00 NR 15.3266 130.576 main 651 610 __________P___ -1 15.3266 130.576 7 10 288
1932297N15132 1932 68 WP MM NOT_NAMED 1932-10-23 21:00:00 NR 15.5162 130.020 main 610 600 __________P___ -1 15.5162 130.020 7 12 290
1932297N15132 1932 68 WP MM NOT_NAMED 1932-10-23 22:00:00 NR 15.6000 129.800 main 600 568 __________O___ -1 15.6000 129.800 3 15 292
1932297N15132 1932 68 WP MM NOT_NAMED 1932-10-24 00:00:00 NR 15.8005 129.303 main 568 500 __________P___ -1 15.8005 129.303 3 17 293
1932297N15132 1932 68 WP MM NOT_NAMED 1932-10-24 03:00:00 NR 16.1579 128.431 main 500 434 __________P___ -1 16.1579 128.431 3 19 292
1932297N15132 1932 68 WP MM NOT_NAMED 1932-10-24 06:00:00 NR 16.5393 127.440 main 434 395 __________P___ -1 16.5393 127.440 3 21 290
1932297N15132 1932 68 WP MM NOT_NAMED 1932-10-24 09:00:00 NR 16.8954 126.368 main 395 382 __________P___ -1 16.8954 126.368 3 22 288
1932297N15132 1932 68 WP MM NOT_NAMED 1932-10-24 10:00:00 NR 17.0000 126.000 main 372 287 __________O___ -1 17.0000 126.000 4 23 283
1932297N15132 1932 68 WP MM NOT_NAMED 1932-10-24 12:00:00 NR 17.1673 125.182 main 287 155 __________P___ -1 17.1673 125.182 4 24 281
1932297N15132 1932 68 WP MM NOT_NAMED 1932-10-24 15:00:00 NR 17.3731 123.903 main 155 38 __________P___ -1 17.3731 123.903 4 24 279
1932297N15132 1932 68 WP MM NOT_NAMED 1932-10-24 18:00:00 NR 17.5337 122.685 main 38 0 __________P___ -1 17.5337 122.685 4 22 278
1932297N15132 1932 68 WP MM NOT_NAMED 1932-10-24 21:00:00 NR 17.6619 121.669 main 0 0 __________P___ -1 17.6619 121.669 4 19 278
1932297N15132 1932 68 WP MM NOT_NAMED 1932-10-24 22:00:00 NR 17.7000 121.400 main 0 0 __________O___ -1 17.7000 121.400 4 12 280
1932297N15132 1932 68 WP MM NOT_NAMED 1932-10-25 00:00:00 NR 17.7701 121.025 main 0 0 __________P___ -1 17.7701 121.025 4 8 283
1932297N15132 1932 68 WP MM NOT_NAMED 1932-10-25 03:00:00 NR 17.8592 120.696 main 0 0 __________P___ -1 17.8592 120.696 4 5 292
1932297N15132 1932 68 WP MM NOT_NAMED 1932-10-25 06:00:00 NR 17.9478 120.559 main 0 0 __________P___ -1 17.9478 120.559 4 3 319
1932297N15132 1932 68 WP MM NOT_NAMED 1932-10-25 09:00:00 NR 18.0561 120.512 main 0 0 __________P___ -1 18.0561 120.512 4 2 339
1932297N15132 1932 68 WP MM NOT_NAMED 1932-10-25 10:00:00 NR 18.1000 120.500 main 0 0 __________O___ -1 18.1000 120.500 4 4 321
1932297N15132 1932 68 WP MM NOT_NAMED 1932-10-25 12:00:00 NR 18.2104 120.384 main 15 15 __________P___ -1 18.2104 120.384 4 5 321
1932297N15132 1932 68 WP MM NOT_NAMED 1932-10-25 15:00:00 NR 18.4013 120.241 main 42 42 __________P___ -1 18.4013 120.241 4 5 330
1932297N15132 1932 68 WP MM NOT_NAMED 1932-10-25 18:00:00 NR 18.6115 120.143 main 57 57 __________P___ -1 18.6115 120.143 4 5 343
1932297N15132 1932 68 WP MM NOT_NAMED 1932-10-25 21:00:00 NR 18.8284 120.100 main 69 69 __________P___ -1 18.8284 120.100 4 4 353
1932297N15132 1932 68 WP MM NOT_NAMED 1932-10-25 22:00:00 NR 18.9000 120.100 main 76 76 __________O___ -1 18.9000 120.100 4 4 0
1932297N15132 1932 68 WP MM NOT_NAMED 1932-10-26 00:00:00 NR 19.0358 120.103 main 85 85 __________P___ -1 19.0358 120.103 4 4 10
1932297N15132 1932 68 WP MM NOT_NAMED 1932-10-26 03:00:00 NR 19.2397 120.157 main 92 100 __________P___ -1 19.2397 120.157 4 4 21
1932297N15132 1932 68 WP MM NOT_NAMED 1932-10-26 06:00:00 NR 19.4410 120.268 main 103 113 __________P___ -1 19.4410 120.268 4 5 34
1932297N15132 1932 68 WP MM NOT_NAMED 1932-10-26 09:00:00 NR 19.6366 120.433 main 119 119 __________P___ -1 19.6366 120.433 4 5 40
1932297N15132 1932 68 WP MM NOT_NAMED 1932-10-26 10:00:00 NR 19.7000 120.500 main 127 127 __________O___ -1 19.7000 120.500 4 6 45
1932297N15132 1932 68 WP MM NOT_NAMED 1932-10-26 12:00:00 NR 19.8436 120.651 main 134 145 __________P___ -1 19.8436 120.651 4 6 48
1932297N15132 1932 68 WP MM NOT_NAMED 1932-10-26 15:00:00 NR 20.0529 120.922 main 167 167 __________P___ -1 20.0529 120.922 4 7 54
1932297N15132 1932 68 WP MM NOT_NAMED 1932-10-26 18:00:00 NR 20.2356 121.218 main 181 178 __________P___ -1 20.2356 121.218 4 6 60
1932297N15132 1932 68 WP MM NOT_NAMED 1932-10-26 21:00:00 NR 20.3698 121.510 main 178 178 __________P___ -1 20.3698 121.510 4 6 65
1932297N15132 1932 68 WP MM NOT_NAMED 1932-10-26 22:00:00 NR 20.4000 121.600 main 182 182 __________O___ -1 20.4000 121.600 4 5 75
1932297N15132 1932 68 WP MM NOT_NAMED 1932-10-27 00:00:00 NR 20.4369 121.774 main 191 191 __________P___ -1 20.4369 121.774 4 5 84
1932297N15132 1932 68 WP MM NOT_NAMED 1932-10-27 03:00:00 NR 20.4419 122.017 main 202 202 __________P___ -1 20.4419 122.017 4 4 95
1932297N15132 1932 68 WP MM NOT_NAMED 1932-10-27 06:00:00 NR 20.4005 122.221 main 215 212 __________P___ -1 20.4005 122.221 4 3 109
1932297N15132 1932 68 WP MM NOT_NAMED 1932-10-27 09:00:00 NR 20.3282 122.367 main 212 212 __________P___ -1 20.3282 122.367 4 3 121
1932297N15132 1932 68 WP MM NOT_NAMED 1932-10-27 10:00:00 NR 20.3000 122.400 main 212 202 __________O___ -1 20.3000 122.400 4 3 135
1932297N15132 1932 68 WP MM NOT_NAMED 1932-10-27 12:00:00 NR 20.2397 122.466 main 202 191 __________P___ -1 20.2397 122.466 4 2 149
1932297N15132 1932 68 WP MM NOT_NAMED 1932-10-27 15:00:00 NR 20.1302 122.509 main 191 180 __________P___ -1 20.1302 122.509 4 2 173
1932297N15132 1932 68 WP MM NOT_NAMED 1932-10-27 18:00:00 NR 20.0175 122.477 main 180 168 __________P___ -1 20.0175 122.477 4 3 214
1932297N15132 1932 68 WP MM NOT_NAMED 1932-10-27 21:00:00 NR 19.9234 122.360 main 168 167 __________P___ -1 19.9234 122.360 4 3 235
1932297N15132 1932 68 WP MM NOT_NAMED 1932-10-27 22:00:00 NR 19.9000 122.300 main 167 167 __________O___ -1 19.9000 122.300 4 4 255
1932297N15132 1932 68 WP MM NOT_NAMED 1932-10-28 00:00:00 NR 19.8696 122.147 main 167 151 __________P___ -1 19.8696 122.147 4 5 263
1932297N15132 1932 68 WP MM NOT_NAMED 1932-10-28 03:00:00 NR 19.8488 121.841 main 151 146 __________P___ -1 19.8488 121.841 4 6 269
1932297N15132 1932 68 WP MM NOT_NAMED 1932-10-28 06:00:00 NR 19.8551 121.483 main 156 146 __________P___ -1 19.8551 121.483 4 7 273
1932297N15132 1932 68 WP MM NOT_NAMED 1932-10-28 09:00:00 NR 19.8852 121.116 main 146 145 __________P___ -1 19.8852 121.116 4 7 276
1932297N15132 1932 68 WP MM NOT_NAMED 1932-10-28 10:00:00 NR 19.9000 121.000 main 145 145 __________O___ -1 19.9000 121.000 4 6 280
1932297N15132 1932 68 WP MM NOT_NAMED 1932-10-28 12:00:00 NR 19.9324 120.826 main 145 145 __________P___ -1 19.9324 120.826 4 5 284
1932297N15132 1932 68 WP MM NOT_NAMED 1932-10-28 15:00:00 NR 20.0001 120.579 main 158 158 __________P___ -1 20.0001 120.579 4 5 288
1932297N15132 1932 68 WP MM NOT_NAMED 1932-10-28 18:00:00 NR 20.0828 120.319 main 175 175 __________P___ -1 20.0828 120.319 4 6 288
1932297N15132 1932 68 WP MM NOT_NAMED 1932-10-28 21:00:00 NR 20.1710 120.016 main 197 197 __________P___ -1 20.1710 120.016 4 6 287
1932297N15132 1932 68 WP MM NOT_NAMED 1932-10-28 22:00:00 NR 20.2000 119.900 main 202 202 __________O___ -1 20.2000 119.900 4 8 284
1932297N15132 1932 68 WP MM NOT_NAMED 1932-10-29 00:00:00 NR 20.2607 119.627 main 212 212 __________P___ -1 20.2607 119.627 4 8 282
1932297N15132 1932 68 WP MM NOT_NAMED 1932-10-29 03:00:00 NR 20.3519 119.166 main 228 235 __________P___ -1 20.3519 119.166 4 9 281
1932297N15132 1932 68 WP MM NOT_NAMED 1932-10-29 06:00:00 NR 20.4319 118.669 main 266 274 __________P___ -1 20.4319 118.669 4 9 278
1932297N15132 1932 68 WP MM NOT_NAMED 1932-10-29 09:00:00 NR 20.4885 118.165 main 302 309 __________P___ -1 20.4885 118.165 4 9 276
1932297N15132 1932 68 WP MM NOT_NAMED 1932-10-29 10:00:00 NR 20.5000 118.000 main 309 295 __________O___ -1 20.5000 118.000 4 9 273
1932297N15132 1932 68 WP MM NOT_NAMED 1932-10-29 12:00:00 NR 20.5141 117.668 main 295 277 __________P___ -1 20.5141 117.668 4 9 271
1932297N15132 1932 68 WP MM NOT_NAMED 1932-10-29 15:00:00 NR 20.5103 117.176 main 277 262 __________P___ -1 20.5103 117.176 4 9 268
1932297N15132 1932 68 WP MM NOT_NAMED 1932-10-29 18:00:00 NR 20.4791 116.715 main 262 256 __________P___ -1 20.4791 116.715 4 8 264
1932297N15132 1932 68 WP MM NOT_NAMED 1932-10-29 21:00:00 NR 20.4234 116.315 main 262 260 __________P___ -1 20.4234 116.315 4 7 261
1932297N15132 1932 68 WP MM NOT_NAMED 1932-10-29 22:00:00 NR 20.4000 116.200 main 260 258 __________O___ -1 20.4000 116.200 4 6 256
1932297N15132 1932 68 WP MM NOT_NAMED 1932-10-30 00:00:00 NR 20.3500 116.007 main 269 263 __________P___ -1 20.3500 116.007 4 5 250
1932297N15132 1932 68 WP MM NOT_NAMED 1932-10-30 03:00:00 NR 20.2564 115.780 main 263 263 __________P___ -1 20.2564 115.780 4 4 242
1932297N15132 1932 68 WP MM NOT_NAMED 1932-10-30 06:00:00 NR 20.1490 115.605 main 277 275 __________P___ -1 20.1490 115.605 4 4 235
1932297N15132 1932 68 WP MM NOT_NAMED 1932-10-30 09:00:00 NR 20.0369 115.451 main 285 281 __________P___ -1 20.0369 115.451 4 4 232
1932297N15132 1932 68 WP MM NOT_NAMED 1932-10-30 10:00:00 NR 20.0000 115.400 main 281 277 __________O___ -1 20.0000 115.400 4 4 237
1932297N15132 1932 68 WP MM NOT_NAMED 1932-10-30 12:00:00 NR 19.9410 115.291 main 287 280 __________P___ -1 19.9410 115.291 4 3 240
1932297N15132 1932 68 WP MM NOT_NAMED 1932-10-30 15:00:00 NR 19.8528 115.134 main 280 288 __________P___ -1 19.8528 115.134 4 4 239
1932297N15132 1932 68 WP MM NOT_NAMED 1932-10-30 18:00:00 NR 19.7567 114.968 main 288 288 __________P___ -1 19.7567 114.968 4 4 238
1932297N15132 1932 68 WP MM NOT_NAMED 1932-10-30 21:00:00 NR 19.6433 114.774 main 306 304 __________P___ -1 19.6433 114.774 4 4 238
1932297N15132 1932 68 WP MM NOT_NAMED 1932-10-30 22:00:00 NR 19.6000 114.700 main 304 303 __________O___ -1 19.6000 114.700 4 5 238
1932297N15132 1932 68 WP MM NOT_NAMED 1932-10-31 00:00:00 NR 19.5005 114.534 main 310 310 __________P___ -1 19.5005 114.534 4 6 238
1932297N15132 1932 68 WP MM NOT_NAMED 1932-10-31 03:00:00 NR 19.3322 114.253 main 320 309 __________P___ -1 19.3322 114.253 4 7 238
1932297N15132 1932 68 WP MM NOT_NAMED 1932-10-31 06:00:00 NR 19.1496 113.943 main 309 280 __________P___ -1 19.1496 113.943 4 7 239
1932297N15132 1932 68 WP MM NOT_NAMED 1932-10-31 09:00:00 NR 18.9620 113.613 main 280 273 __________P___ -1 18.9620 113.613 4 7 239
1932297N15132 1932 68 WP MM NOT_NAMED 1932-10-31 10:00:00 NR 18.9000 113.500 main 273 257 __________O___ -1 18.9000 113.500 4 7 239
1932297N15132 1932 68 WP MM NOT_NAMED 1932-10-31 12:00:00 NR 18.7754 113.281 main 257 228 __________P___ -1 18.7754 113.281 4 7 240
1932297N15132 1932 68 WP MM NOT_NAMED 1932-10-31 15:00:00 NR 18.5883 112.939 main 228 215 __________P___ -1 18.5883 112.939 4 8 241
1932297N15132 1932 68 WP MM NOT_NAMED 1932-10-31 18:00:00 NR 18.4095 112.585 main 215 185 __________P___ -1 18.4095 112.585 4 8 243
1932297N15132 1932 68 WP MM NOT_NAMED 1932-10-31 21:00:00 NR 18.2482 112.222 main 190 181 __________P___ -1 18.2482 112.222 4 8 246
1932297N15132 1932 68 WP MM NOT_NAMED 1932-10-31 22:00:00 NR 18.2000 112.100 main 181 167 __________O___ -1 18.2000 112.100 7 8 249
1932297N15132 1932 68 WP MM NOT_NAMED 1932-11-01 00:00:00 NR 18.1161 111.853 main 167 138 __________P___ -1 18.1161 111.853 7 7 252
1932297N15132 1932 68 WP MM NOT_NAMED 1932-11-01 03:00:00 NR 18.0093 111.477 main 138 115 __________P___ -1 18.0093 111.477 7 7 255
1932297N15132 1932 68 WP MM NOT_NAMED 1932-11-01 06:00:00 NR 17.9169 111.098 main 116 98 __________P___ -1 17.9169 111.098 7 7 256
1932297N15132 1932 68 WP MM NOT_NAMED 1932-11-01 09:00:00 NR 17.8296 110.723 main 99 92 __________P___ -1 17.8296 110.723 7 7 256
1932297N15132 1932 68 WP MM NOT_NAMED 1932-11-01 10:00:00 NR 17.8000 110.600 main 92 79 __________O___ -1 17.8000 110.600 7 7 255
1932297N15132 1932 68 WP MM NOT_NAMED 1932-11-01 12:00:00 NR 17.7385 110.358 main 89 64 __________P___ -1 17.7385 110.358 7 7 254
1932297N15132 1932 68 WP MM NOT_NAMED 1932-11-01 15:00:00 NR 17.6414 110.003 main 74 67 __________P___ -1 17.6414 110.003 7 7 253
1932297N15132 1932 68 WP MM NOT_NAMED 1932-11-01 18:00:00 NR 17.5397 109.656 main 78 78 __________P___ -1 17.5397 109.656 7 7 253
1932297N15132 1932 68 WP MM NOT_NAMED 1932-11-01 21:00:00 NR 17.4352 109.314 main 91 91 __________P___ -1 17.4352 109.314 7 7 252
1932297N15132 1932 68 WP MM NOT_NAMED 1932-11-01 22:00:00 NR 17.4000 109.200 main 94 __________O___ -1 17.4000 109.200 7 7 253

デジタル台風データ・検索

IBTrACS Databaseについて

本データベースは、米国NOAAが公開する1842年以降の世界の熱帯低気圧のベストトラックデータアーカイブInternational Best Track Archive for Climate Stewardship (IBTrACS)を、ウェブで閲覧しやすい形式に変換したものです。

最終更新日:2021-10-08